Refton, Pennsylvania
Current Conditions -  °F | °C
As of 9:53 AM on Thursday 23 Oct 2014 (Local Time) from KLNS Reporting Station
Overcast Overcast  
Wind Chill: 53°   Ceiling: 2800
Heat Index: 53°   Visibility: 10mi
Dew Point: 42°   Wind: 13mph
Humidity: 66%   Direction: 330°NNW
Pressure: 29.85"   Gusts: 24mph
Location:  39.95°N, 76.23°W
Report Text: KLNS 231353Z 33011G21KT 10SM OVC028 12/06 A2985 RMK AO2 SLP108 T01170056
Loading
Personal Weather Stations






























Interactive Weather Map
Tropical Storm Tracking
New forecast layout! Learn more

10-Day Weather Forecast

Advertisements
Track Severe Weather on mobile